sensor_id;sensor_type;location;lat;lon;timestamp;temperature;humidity
21722;DHT22;11023;48.274;7.794;2023-09-08T00:01:55;19.60;99.90
21722;DHT22;11023;48.274;7.794;2023-09-08T00:04:21;19.60;99.90
21722;DHT22;11023;48.274;7.794;2023-09-08T00:06:48;19.60;99.90
21722;DHT22;11023;48.274;7.794;2023-09-08T00:09:14;19.60;99.90
21722;DHT22;11023;48.274;7.794;2023-09-08T00:11:39;19.60;99.90
21722;DHT22;11023;48.274;7.794;2023-09-08T00:14:05;19.50;99.90
21722;DHT22;11023;48.274;7.794;2023-09-08T00:16:31;19.50;99.90
21722;DHT22;11023;48.274;7.794;2023-09-08T00:18:57;19.50;99.90
21722;DHT22;11023;48.274;7.794;2023-09-08T00:21:26;19.50;99.90
21722;DHT22;11023;48.274;7.794;2023-09-08T00:23:52;19.50;99.90
21722;DHT22;11023;48.274;7.794;2023-09-08T00:26:18;19.50;99.90
21722;DHT22;11023;48.274;7.794;2023-09-08T00:28:44;19.50;99.90
21722;DHT22;11023;48.274;7.794;2023-09-08T00:31:09;19.50;99.90
21722;DHT22;11023;48.274;7.794;2023-09-08T00:33:35;19.40;99.90
21722;DHT22;11023;48.274;7.794;2023-09-08T00:36:01;19.40;99.90
21722;DHT22;11023;48.274;7.794;2023-09-08T00:38:27;19.30;99.90
21722;DHT22;11023;48.274;7.794;2023-09-08T00:40:52;19.30;99.90
21722;DHT22;11023;48.274;7.794;2023-09-08T00:43:18;19.30;99.90
21722;DHT22;11023;48.274;7.794;2023-09-08T00:45:45;19.20;99.90
21722;DHT22;11023;48.274;7.794;2023-09-08T00:48:11;19.30;99.90
21722;DHT22;11023;48.274;7.794;2023-09-08T00:50:38;19.20;99.90
21722;DHT22;11023;48.274;7.794;2023-09-08T00:53:05;19.10;99.90
21722;DHT22;11023;48.274;7.794;2023-09-08T00:55:31;19.00;99.90
21722;DHT22;11023;48.274;7.794;2023-09-08T00:57:58;19.00;99.90
21722;DHT22;11023;48.274;7.794;2023-09-08T01:00:27;18.90;99.90
21722;DHT22;11023;48.274;7.794;2023-09-08T01:02:53;18.90;99.90
21722;DHT22;11023;48.274;7.794;2023-09-08T01:05:19;18.80;99.90
21722;DHT22;11023;48.274;7.794;2023-09-08T01:07:46;18.80;99.90
21722;DHT22;11023;48.274;7.794;2023-09-08T01:10:13;18.80;99.90
21722;DHT22;11023;48.274;7.794;2023-09-08T01:12:39;18.80;99.90
21722;DHT22;11023;48.274;7.794;2023-09-08T01:15:05;18.70;99.90
21722;DHT22;11023;48.274;7.794;2023-09-08T01:17:31;18.70;99.90
21722;DHT22;11023;48.274;7.794;2023-09-08T01:20:22;18.60;99.90
21722;DHT22;11023;48.274;7.794;2023-09-08T01:23:01;18.60;99.90
21722;DHT22;11023;48.274;7.794;2023-09-08T01:25:30;18.60;99.90
21722;DHT22;11023;48.274;7.794;2023-09-08T01:27:59;18.50;99.90
21722;DHT22;11023;48.274;7.794;2023-09-08T01:30:28;18.40;99.90
21722;DHT22;11023;48.274;7.794;2023-09-08T01:32:55;18.40;99.90
21722;DHT22;11023;48.274;7.794;2023-09-08T01:35:21;18.40;99.90
21722;DHT22;11023;48.274;7.794;2023-09-08T01:37:48;18.50;99.90
21722;DHT22;11023;48.274;7.794;2023-09-08T01:40:15;18.50;99.90
21722;DHT22;11023;48.274;7.794;2023-09-08T01:42:41;18.40;99.90
21722;DHT22;11023;48.274;7.794;2023-09-08T01:45:07;18.50;99.90
21722;DHT22;11023;48.274;7.794;2023-09-08T01:47:34;18.50;99.90
21722;DHT22;11023;48.274;7.794;2023-09-08T01:50:00;18.50;99.90
21722;DHT22;11023;48.274;7.794;2023-09-08T01:52:27;18.50;99.90
21722;DHT22;11023;48.274;7.794;2023-09-08T01:54:53;18.50;99.90
21722;DHT22;11023;48.274;7.794;2023-09-08T01:57:19;18.50;99.90
21722;DHT22;11023;48.274;7.794;2023-09-08T01:59:44;18.50;99.90
21722;DHT22;11023;48.274;7.794;2023-09-08T02:02:11;18.50;99.90
21722;DHT22;11023;48.274;7.794;2023-09-08T02:04:37;18.40;99.90
21722;DHT22;11023;48.274;7.794;2023-09-08T02:07:02;18.50;99.90
21722;DHT22;11023;48.274;7.794;2023-09-08T02:09:36;18.50;99.90
21722;DHT22;11023;48.274;7.794;2023-09-08T02:12:03;18.50;99.90
21722;DHT22;11023;48.274;7.794;2023-09-08T02:14:29;18.40;99.90
21722;DHT22;11023;48.274;7.794;2023-09-08T02:16:55;18.50;99.90
21722;DHT22;11023;48.274;7.794;2023-09-08T02:19:21;18.40;99.90
21722;DHT22;11023;48.274;7.794;2023-09-08T02:21:46;18.40;99.90
21722;DHT22;11023;48.274;7.794;2023-09-08T02:24:12;18.50;99.90
21722;DHT22;11023;48.274;7.794;2023-09-08T02:26:41;18.50;99.90
21722;DHT22;11023;48.274;7.794;2023-09-08T02:29:07;18.40;99.90
21722;DHT22;11023;48.274;7.794;2023-09-08T02:31:33;18.30;99.90
21722;DHT22;11023;48.274;7.794;2023-09-08T02:33:59;18.20;99.90
21722;DHT22;11023;48.274;7.794;2023-09-08T02:36:25;18.20;99.90
21722;DHT22;11023;48.274;7.794;2023-09-08T02:38:55;18.20;99.90
21722;DHT22;11023;48.274;7.794;2023-09-08T02:41:22;18.10;99.90
21722;DHT22;11023;48.274;7.794;2023-09-08T02:43:48;18.10;99.90
21722;DHT22;11023;48.274;7.794;2023-09-08T02:46:14;18.10;99.90
21722;DHT22;11023;48.274;7.794;2023-09-08T02:48:40;18.10;99.90
21722;DHT22;11023;48.274;7.794;2023-09-08T02:51:06;18.10;99.90
21722;DHT22;11023;48.274;7.794;2023-09-08T02:53:31;18.10;99.90
21722;DHT22;11023;48.274;7.794;2023-09-08T02:55:58;18.00;99.90
21722;DHT22;11023;48.274;7.794;2023-09-08T02:58:25;18.10;99.90
21722;DHT22;11023;48.274;7.794;2023-09-08T03:00:51;18.10;99.90
21722;DHT22;11023;48.274;7.794;2023-09-08T03:03:20;18.10;99.90
21722;DHT22;11023;48.274;7.794;2023-09-08T03:05:46;18.10;99.90
21722;DHT22;11023;48.274;7.794;2023-09-08T03:08:12;18.00;99.90
21722;DHT22;11023;48.274;7.794;2023-09-08T03:10:37;18.10;99.90
21722;DHT22;11023;48.274;7.794;2023-09-08T03:13:04;18.00;99.90
21722;DHT22;11023;48.274;7.794;2023-09-08T03:15:29;18.00;99.90
21722;DHT22;11023;48.274;7.794;2023-09-08T03:17:56;18.00;99.90
21722;DHT22;11023;48.274;7.794;2023-09-08T03:20:22;18.00;99.90
21722;DHT22;11023;48.274;7.794;2023-09-08T03:22:48;18.00;99.90
21722;DHT22;11023;48.274;7.794;2023-09-08T03:25:14;18.10;99.90
21722;DHT22;11023;48.274;7.794;2023-09-08T03:27:40;18.10;99.90
21722;DHT22;11023;48.274;7.794;2023-09-08T03:30:06;18.00;99.90
21722;DHT22;11023;48.274;7.794;2023-09-08T03:32:32;18.10;99.90
21722;DHT22;11023;48.274;7.794;2023-09-08T03:34:58;18.10;99.90
21722;DHT22;11023;48.274;7.794;2023-09-08T03:37:24;18.00;99.90
21722;DHT22;11023;48.274;7.794;2023-09-08T03:39:52;18.00;99.90
21722;DHT22;11023;48.274;7.794;2023-09-08T03:42:17;18.00;99.90
21722;DHT22;11023;48.274;7.794;2023-09-08T03:44:43;18.00;99.90
21722;DHT22;11023;48.274;7.794;2023-09-08T03:47:08;18.00;99.90
21722;DHT22;11023;48.274;7.794;2023-09-08T03:49:34;18.00;99.90
21722;DHT22;11023;48.274;7.794;2023-09-08T03:52:00;18.00;99.90
21722;DHT22;11023;48.274;7.794;2023-09-08T03:54:25;18.00;99.90
21722;DHT22;11023;48.274;7.794;2023-09-08T03:56:51;18.00;99.90
21722;DHT22;11023;48.274;7.794;2023-09-08T03:59:17;18.10;99.90
21722;DHT22;11023;48.274;7.794;2023-09-08T04:01:42;18.10;99.90
21722;DHT22;11023;48.274;7.794;2023-09-08T04:04:08;18.10;99.90
21722;DHT22;11023;48.274;7.794;2023-09-08T04:06:34;18.10;99.90
21722;DHT22;11023;48.274;7.794;2023-09-08T04:08:59;18.00;99.90
21722;DHT22;11023;48.274;7.794;2023-09-08T04:11:25;18.00;99.90
21722;DHT22;11023;48.274;7.794;2023-09-08T04:13:51;18.00;99.90
21722;DHT22;11023;48.274;7.794;2023-09-08T04:16:17;18.00;99.90
21722;DHT22;11023;48.274;7.794;2023-09-08T04:18:43;17.90;99.90
21722;DHT22;11023;48.274;7.794;2023-09-08T04:21:09;17.90;99.90
21722;DHT22;11023;48.274;7.794;2023-09-08T04:23:34;18.00;99.90
21722;DHT22;11023;48.274;7.794;2023-09-08T04:26:00;17.90;99.90
21722;DHT22;11023;48.274;7.794;2023-09-08T04:28:26;17.90;99.90
21722;DHT22;11023;48.274;7.794;2023-09-08T04:30:51;17.90;99.90
21722;DHT22;11023;48.274;7.794;2023-09-08T04:33:17;17.90;99.90
21722;DHT22;11023;48.274;7.794;2023-09-08T04:35:43;18.00;99.90
21722;DHT22;11023;48.274;7.794;2023-09-08T04:38:09;17.90;99.90
21722;DHT22;11023;48.274;7.794;2023-09-08T04:40:34;17.80;99.90
21722;DHT22;11023;48.274;7.794;2023-09-08T04:43:00;17.80;99.90
21722;DHT22;11023;48.274;7.794;2023-09-08T04:45:26;17.80;99.90
21722;DHT22;11023;48.274;7.794;2023-09-08T04:47:51;17.80;99.90
21722;DHT22;11023;48.274;7.794;2023-09-08T04:50:17;17.70;99.90
21722;DHT22;11023;48.274;7.794;2023-09-08T04:52:43;17.70;99.90
21722;DHT22;11023;48.274;7.794;2023-09-08T04:55:09;17.70;99.90
21722;DHT22;11023;48.274;7.794;2023-09-08T04:57:35;17.70;99.90
21722;DHT22;11023;48.274;7.794;2023-09-08T05:00:01;17.70;99.90
21722;DHT22;11023;48.274;7.794;2023-09-08T05:02:27;17.60;99.90
21722;DHT22;11023;48.274;7.794;2023-09-08T05:04:53;17.60;99.90
21722;DHT22;11023;48.274;7.794;2023-09-08T05:07:19;17.60;99.90
21722;DHT22;11023;48.274;7.794;2023-09-08T05:09:44;17.60;99.90
21722;DHT22;11023;48.274;7.794;2023-09-08T05:12:10;17.70;99.90
21722;DHT22;11023;48.274;7.794;2023-09-08T05:14:36;17.70;99.90
21722;DHT22;11023;48.274;7.794;2023-09-08T05:17:02;17.70;99.90
21722;DHT22;11023;48.274;7.794;2023-09-08T05:19:27;17.70;99.90
21722;DHT22;11023;48.274;7.794;2023-09-08T05:21:54;17.80;99.90
21722;DHT22;11023;48.274;7.794;2023-09-08T05:24:20;17.70;99.90
21722;DHT22;11023;48.274;7.794;2023-09-08T05:26:46;17.80;99.90
21722;DHT22;11023;48.274;7.794;2023-09-08T05:29:12;17.70;99.90
21722;DHT22;11023;48.274;7.794;2023-09-08T05:31:38;17.70;99.90
21722;DHT22;11023;48.274;7.794;2023-09-08T05:34:04;17.80;99.90
21722;DHT22;11023;48.274;7.794;2023-09-08T05:36:29;17.80;99.90
21722;DHT22;11023;48.274;7.794;2023-09-08T05:38:56;17.80;99.90
21722;DHT22;11023;48.274;7.794;2023-09-08T05:41:22;17.80;99.90
21722;DHT22;11023;48.274;7.794;2023-09-08T05:43:48;17.70;99.90
21722;DHT22;11023;48.274;7.794;2023-09-08T05:46:13;17.60;99.90
21722;DHT22;11023;48.274;7.794;2023-09-08T05:48:39;17.60;99.90
21722;DHT22;11023;48.274;7.794;2023-09-08T05:51:05;17.60;99.90
21722;DHT22;11023;48.274;7.794;2023-09-08T05:53:32;17.70;99.90
21722;DHT22;11023;48.274;7.794;2023-09-08T05:55:58;17.70;99.90
21722;DHT22;11023;48.274;7.794;2023-09-08T05:58:24;17.70;99.90
21722;DHT22;11023;48.274;7.794;2023-09-08T06:00:53;17.70;99.90
21722;DHT22;11023;48.274;7.794;2023-09-08T06:03:19;17.80;99.90
21722;DHT22;11023;48.274;7.794;2023-09-08T06:05:44;17.80;99.90
21722;DHT22;11023;48.274;7.794;2023-09-08T06:08:10;17.90;99.90
21722;DHT22;11023;48.274;7.794;2023-09-08T06:10:37;17.90;99.90
21722;DHT22;11023;48.274;7.794;2023-09-08T06:13:03;18.00;99.90
21722;DHT22;11023;48.274;7.794;2023-09-08T06:15:28;18.00;99.90
21722;DHT22;11023;48.274;7.794;2023-09-08T06:17:54;18.10;99.90
21722;DHT22;11023;48.274;7.794;2023-09-08T06:20:20;18.20;99.90
21722;DHT22;11023;48.274;7.794;2023-09-08T06:22:46;18.30;99.90
21722;DHT22;11023;48.274;7.794;2023-09-08T06:25:12;18.40;99.90
21722;DHT22;11023;48.274;7.794;2023-09-08T06:27:38;18.50;99.90
21722;DHT22;11023;48.274;7.794;2023-09-08T06:30:04;18.50;99.90
21722;DHT22;11023;48.274;7.794;2023-09-08T06:32:30;18.60;99.90
21722;DHT22;11023;48.274;7.794;2023-09-08T06:34:56;18.70;99.90
21722;DHT22;11023;48.274;7.794;2023-09-08T06:37:22;18.80;99.90
21722;DHT22;11023;48.274;7.794;2023-09-08T06:39:48;18.80;99.90
21722;DHT22;11023;48.274;7.794;2023-09-08T06:42:13;18.90;99.90
21722;DHT22;11023;48.274;7.794;2023-09-08T06:44:39;18.90;99.90
21722;DHT22;11023;48.274;7.794;2023-09-08T06:47:05;19.00;99.90
21722;DHT22;11023;48.274;7.794;2023-09-08T06:49:32;19.00;99.90
21722;DHT22;11023;48.274;7.794;2023-09-08T06:51:58;19.10;99.90
21722;DHT22;11023;48.274;7.794;2023-09-08T06:54:24;19.20;99.90
21722;DHT22;11023;48.274;7.794;2023-09-08T06:56:49;19.30;99.90
21722;DHT22;11023;48.274;7.794;2023-09-08T06:59:15;19.30;99.90
21722;DHT22;11023;48.274;7.794;2023-09-08T07:01:42;19.40;99.90
21722;DHT22;11023;48.274;7.794;2023-09-08T07:04:07;19.60;99.90
21722;DHT22;11023;48.274;7.794;2023-09-08T07:06:33;19.60;99.90
21722;DHT22;11023;48.274;7.794;2023-09-08T07:09:00;19.80;99.90
21722;DHT22;11023;48.274;7.794;2023-09-08T07:11:26;19.80;99.90
21722;DHT22;11023;48.274;7.794;2023-09-08T07:13:52;19.90;99.90
21722;DHT22;11023;48.274;7.794;2023-09-08T07:16:17;20.00;99.90
21722;DHT22;11023;48.274;7.794;2023-09-08T07:18:43;20.00;99.90
21722;DHT22;11023;48.274;7.794;2023-09-08T07:21:09;20.10;99.90
21722;DHT22;11023;48.274;7.794;2023-09-08T07:23:34;20.20;99.90
21722;DHT22;11023;48.274;7.794;2023-09-08T07:26:02;20.20;99.90
21722;DHT22;11023;48.274;7.794;2023-09-08T07:28:27;20.30;99.90
21722;DHT22;11023;48.274;7.794;2023-09-08T07:30:53;20.40;99.90
21722;DHT22;11023;48.274;7.794;2023-09-08T07:33:19;20.50;99.90
21722;DHT22;11023;48.274;7.794;2023-09-08T07:35:45;20.60;99.90
21722;DHT22;11023;48.274;7.794;2023-09-08T07:38:12;20.60;99.90
21722;DHT22;11023;48.274;7.794;2023-09-08T07:40:37;20.70;99.90
21722;DHT22;11023;48.274;7.794;2023-09-08T07:43:03;20.80;99.90
21722;DHT22;11023;48.274;7.794;2023-09-08T07:45:29;20.80;99.90
21722;DHT22;11023;48.274;7.794;2023-09-08T07:47:54;21.00;99.90
21722;DHT22;11023;48.274;7.794;2023-09-08T07:50:23;21.10;99.90
21722;DHT22;11023;48.274;7.794;2023-09-08T07:52:51;21.20;99.90
21722;DHT22;11023;48.274;7.794;2023-09-08T07:55:17;21.30;99.90
21722;DHT22;11023;48.274;7.794;2023-09-08T07:57:44;21.40;99.90
21722;DHT22;11023;48.274;7.794;2023-09-08T08:00:12;21.50;99.90
21722;DHT22;11023;48.274;7.794;2023-09-08T08:02:42;21.60;99.90
21722;DHT22;11023;48.274;7.794;2023-09-08T08:05:08;21.70;99.90
21722;DHT22;11023;48.274;7.794;2023-09-08T08:07:34;21.70;99.90
21722;DHT22;11023;48.274;7.794;2023-09-08T08:10:00;21.80;99.90
21722;DHT22;11023;48.274;7.794;2023-09-08T08:12:26;21.90;99.90
21722;DHT22;11023;48.274;7.794;2023-09-08T08:14:52;22.00;99.90
21722;DHT22;11023;48.274;7.794;2023-09-08T08:17:17;22.00;99.90
21722;DHT22;11023;48.274;7.794;2023-09-08T08:19:45;22.10;99.90
21722;DHT22;11023;48.274;7.794;2023-09-08T08:22:11;22.20;99.90
21722;DHT22;11023;48.274;7.794;2023-09-08T08:24:36;22.30;99.90
21722;DHT22;11023;48.274;7.794;2023-09-08T08:27:02;22.40;99.90
21722;DHT22;11023;48.274;7.794;2023-09-08T08:29:29;22.60;99.90
21722;DHT22;11023;48.274;7.794;2023-09-08T08:31:54;22.60;99.90
21722;DHT22;11023;48.274;7.794;2023-09-08T08:34:20;22.70;99.90
21722;DHT22;11023;48.274;7.794;2023-09-08T08:36:47;22.90;99.90
21722;DHT22;11023;48.274;7.794;2023-09-08T08:39:13;22.90;99.90
21722;DHT22;11023;48.274;7.794;2023-09-08T08:41:40;23.10;99.90
21722;DHT22;11023;48.274;7.794;2023-09-08T08:44:07;23.10;99.90
21722;DHT22;11023;48.274;7.794;2023-09-08T08:46:35;23.20;99.90
21722;DHT22;11023;48.274;7.794;2023-09-08T08:49:03;23.40;99.90
21722;DHT22;11023;48.274;7.794;2023-09-08T08:51:30;23.50;99.90
21722;DHT22;11023;48.274;7.794;2023-09-08T08:53:57;23.60;99.90
21722;DHT22;11023;48.274;7.794;2023-09-08T08:56:23;23.70;99.90
21722;DHT22;11023;48.274;7.794;2023-09-08T08:58:50;23.90;99.90
21722;DHT22;11023;48.274;7.794;2023-09-08T09:01:18;24.00;99.90
21722;DHT22;11023;48.274;7.794;2023-09-08T09:03:49;24.20;99.90
21722;DHT22;11023;48.274;7.794;2023-09-08T09:06:16;24.30;99.90
21722;DHT22;11023;48.274;7.794;2023-09-08T09:08:44;24.40;99.90
21722;DHT22;11023;48.274;7.794;2023-09-08T09:11:10;24.50;99.90
21722;DHT22;11023;48.274;7.794;2023-09-08T09:13:36;24.60;99.90
21722;DHT22;11023;48.274;7.794;2023-09-08T09:16:02;24.70;99.90
21722;DHT22;11023;48.274;7.794;2023-09-08T09:18:32;24.80;99.90
21722;DHT22;11023;48.274;7.794;2023-09-08T09:21:01;24.80;99.90
21722;DHT22;11023;48.274;7.794;2023-09-08T09:23:34;24.90;99.90
21722;DHT22;11023;48.274;7.794;2023-09-08T09:26:02;25.00;99.90
21722;DHT22;11023;48.274;7.794;2023-09-08T09:28:29;25.00;99.90
21722;DHT22;11023;48.274;7.794;2023-09-08T09:30:55;25.10;99.90
21722;DHT22;11023;48.274;7.794;2023-09-08T09:33:22;25.20;99.90
21722;DHT22;11023;48.274;7.794;2023-09-08T09:35:50;25.20;99.90
21722;DHT22;11023;48.274;7.794;2023-09-08T09:38:17;25.30;99.90
21722;DHT22;11023;48.274;7.794;2023-09-08T09:40:47;25.40;99.90
21722;DHT22;11023;48.274;7.794;2023-09-08T09:43:15;25.50;99.90
21722;DHT22;11023;48.274;7.794;2023-09-08T09:45:41;25.60;99.90
21722;DHT22;11023;48.274;7.794;2023-09-08T09:48:09;25.70;99.90
21722;DHT22;11023;48.274;7.794;2023-09-08T09:50:36;25.90;99.90
21722;DHT22;11023;48.274;7.794;2023-09-08T09:53:07;26.00;99.90
21722;DHT22;11023;48.274;7.794;2023-09-08T09:55:33;26.20;99.90
21722;DHT22;11023;48.274;7.794;2023-09-08T09:58:03;26.20;99.90
21722;DHT22;11023;48.274;7.794;2023-09-08T10:00:30;26.40;99.90
21722;DHT22;11023;48.274;7.794;2023-09-08T10:02:59;26.40;99.90
21722;DHT22;11023;48.274;7.794;2023-09-08T10:05:25;26.50;99.90
21722;DHT22;11023;48.274;7.794;2023-09-08T10:07:51;26.60;99.90
21722;DHT22;11023;48.274;7.794;2023-09-08T10:10:19;26.70;99.90
21722;DHT22;11023;48.274;7.794;2023-09-08T10:12:46;26.80;99.90
21722;DHT22;11023;48.274;7.794;2023-09-08T10:15:19;26.90;99.90
21722;DHT22;11023;48.274;7.794;2023-09-08T10:17:52;27.00;99.90
21722;DHT22;11023;48.274;7.794;2023-09-08T10:20:18;27.10;99.90
21722;DHT22;11023;48.274;7.794;2023-09-08T10:22:54;27.20;99.90
21722;DHT22;11023;48.274;7.794;2023-09-08T10:25:24;27.30;99.90
21722;DHT22;11023;48.274;7.794;2023-09-08T10:27:50;27.30;99.90
21722;DHT22;11023;48.274;7.794;2023-09-08T10:30:16;27.40;99.90
21722;DHT22;11023;48.274;7.794;2023-09-08T10:32:46;27.40;99.90
21722;DHT22;11023;48.274;7.794;2023-09-08T10:35:12;27.50;99.90
21722;DHT22;11023;48.274;7.794;2023-09-08T10:37:38;27.60;99.90
21722;DHT22;11023;48.274;7.794;2023-09-08T10:40:25;27.70;99.90
21722;DHT22;11023;48.274;7.794;2023-09-08T10:43:08;27.80;99.90
21722;DHT22;11023;48.274;7.794;2023-09-08T10:45:34;27.80;99.90
21722;DHT22;11023;48.274;7.794;2023-09-08T10:48:00;27.90;99.90
21722;DHT22;11023;48.274;7.794;2023-09-08T10:50:30;28.00;99.90
21722;DHT22;11023;48.274;7.794;2023-09-08T10:53:16;28.10;99.90
21722;DHT22;11023;48.274;7.794;2023-09-08T10:55:44;28.20;99.90
21722;DHT22;11023;48.274;7.794;2023-09-08T10:58:34;28.30;99.90
21722;DHT22;11023;48.274;7.794;2023-09-08T11:01:02;28.60;99.90
21722;DHT22;11023;48.274;7.794;2023-09-08T11:06:05;28.80;99.90
21722;DHT22;11023;48.274;7.794;2023-09-08T11:08:33;28.90;99.90
21722;DHT22;11023;48.274;7.794;2023-09-08T11:10:59;29.00;99.90
21722;DHT22;11023;48.274;7.794;2023-09-08T11:13:26;29.10;99.90
21722;DHT22;11023;48.274;7.794;2023-09-08T11:15:53;29.20;99.90
21722;DHT22;11023;48.274;7.794;2023-09-08T11:18:33;29.20;99.90
21722;DHT22;11023;48.274;7.794;2023-09-08T11:21:00;29.20;99.90
21722;DHT22;11023;48.274;7.794;2023-09-08T11:23:36;29.30;99.90
21722;DHT22;11023;48.274;7.794;2023-09-08T11:26:02;29.30;99.90
21722;DHT22;11023;48.274;7.794;2023-09-08T11:28:28;29.40;99.90
21722;DHT22;11023;48.274;7.794;2023-09-08T11:30:54;29.40;99.90
21722;DHT22;11023;48.274;7.794;2023-09-08T11:33:22;29.40;99.90
21722;DHT22;11023;48.274;7.794;2023-09-08T11:35:53;29.60;99.90
21722;DHT22;11023;48.274;7.794;2023-09-08T11:38:25;29.70;99.90
21722;DHT22;11023;48.274;7.794;2023-09-08T11:40:52;29.80;99.90
21722;DHT22;11023;48.274;7.794;2023-09-08T11:43:19;29.90;99.90
21722;DHT22;11023;48.274;7.794;2023-09-08T11:45:44;30.00;99.90
21722;DHT22;11023;48.274;7.794;2023-09-08T11:48:10;30.10;99.90
21722;DHT22;11023;48.274;7.794;2023-09-08T11:50:36;30.20;99.90
21722;DHT22;11023;48.274;7.794;2023-09-08T11:53:02;30.30;99.90
21722;DHT22;11023;48.274;7.794;2023-09-08T11:55:28;30.50;99.90
21722;DHT22;11023;48.274;7.794;2023-09-08T11:57:55;30.60;99.90
21722;DHT22;11023;48.274;7.794;2023-09-08T12:00:23;30.80;99.90
21722;DHT22;11023;48.274;7.794;2023-09-08T12:02:51;31.10;99.90
21722;DHT22;11023;48.274;7.794;2023-09-08T12:05:24;31.20;99.90
21722;DHT22;11023;48.274;7.794;2023-09-08T12:07:55;31.30;99.90
21722;DHT22;11023;48.274;7.794;2023-09-08T12:10:22;31.20;99.90
21722;DHT22;11023;48.274;7.794;2023-09-08T12:12:50;31.10;99.90
21722;DHT22;11023;48.274;7.794;2023-09-08T12:15:37;31.00;99.90
21722;DHT22;11023;48.274;7.794;2023-09-08T12:18:05;31.10;99.90
21722;DHT22;11023;48.274;7.794;2023-09-08T12:20:32;31.20;99.90
21722;DHT22;11023;48.274;7.794;2023-09-08T12:23:00;31.30;99.90
21722;DHT22;11023;48.274;7.794;2023-09-08T12:25:27;31.10;99.90
21722;DHT22;11023;48.274;7.794;2023-09-08T12:28:02;31.30;99.90
21722;DHT22;11023;48.274;7.794;2023-09-08T12:30:28;31.70;99.90
21722;DHT22;11023;48.274;7.794;2023-09-08T12:32:59;31.90;99.90
21722;DHT22;11023;48.274;7.794;2023-09-08T12:35:26;32.00;99.90
21722;DHT22;11023;48.274;7.794;2023-09-08T12:38:04;32.10;99.90
21722;DHT22;11023;48.274;7.794;2023-09-08T12:40:35;32.30;99.90
21722;DHT22;11023;48.274;7.794;2023-09-08T12:43:01;32.40;99.90
21722;DHT22;11023;48.274;7.794;2023-09-08T12:45:27;32.30;99.90
21722;DHT22;11023;48.274;7.794;2023-09-08T12:47:54;32.30;99.90
21722;DHT22;11023;48.274;7.794;2023-09-08T12:50:24;32.40;99.90
21722;DHT22;11023;48.274;7.794;2023-09-08T12:52:50;32.50;99.90
21722;DHT22;11023;48.274;7.794;2023-09-08T12:55:16;32.50;99.90
21722;DHT22;11023;48.274;7.794;2023-09-08T12:57:41;32.70;99.90
21722;DHT22;11023;48.274;7.794;2023-09-08T13:00:08;32.90;99.90
21722;DHT22;11023;48.274;7.794;2023-09-08T13:02:34;33.00;99.90
21722;DHT22;11023;48.274;7.794;2023-09-08T13:05:02;33.10;99.90
21722;DHT22;11023;48.274;7.794;2023-09-08T13:07:28;32.90;99.90
21722;DHT22;11023;48.274;7.794;2023-09-08T13:09:54;32.80;99.90
21722;DHT22;11023;48.274;7.794;2023-09-08T13:12:20;32.60;99.90
21722;DHT22;11023;48.274;7.794;2023-09-08T13:14:46;32.60;99.90
21722;DHT22;11023;48.274;7.794;2023-09-08T13:17:12;32.60;99.90
21722;DHT22;11023;48.274;7.794;2023-09-08T13:19:39;32.70;99.90
21722;DHT22;11023;48.274;7.794;2023-09-08T13:22:05;32.70;99.90
21722;DHT22;11023;48.274;7.794;2023-09-08T13:24:33;32.70;99.90
21722;DHT22;11023;48.274;7.794;2023-09-08T13:27:00;32.40;99.90
21722;DHT22;11023;48.274;7.794;2023-09-08T13:29:26;32.30;99.90
21722;DHT22;11023;48.274;7.794;2023-09-08T13:31:55;32.30;99.90
21722;DHT22;11023;48.274;7.794;2023-09-08T13:34:21;32.60;99.90
21722;DHT22;11023;48.274;7.794;2023-09-08T13:36:47;32.90;99.90
21722;DHT22;11023;48.274;7.794;2023-09-08T13:39:13;33.00;99.90
21722;DHT22;11023;48.274;7.794;2023-09-08T13:41:49;33.00;99.90
21722;DHT22;11023;48.274;7.794;2023-09-08T13:44:16;33.10;99.90
21722;DHT22;11023;48.274;7.794;2023-09-08T13:46:43;33.20;99.90
21722;DHT22;11023;48.274;7.794;2023-09-08T13:49:09;33.20;99.90
21722;DHT22;11023;48.274;7.794;2023-09-08T13:51:34;33.20;99.90
21722;DHT22;11023;48.274;7.794;2023-09-08T13:54:00;33.30;99.90
21722;DHT22;11023;48.274;7.794;2023-09-08T13:56:25;33.30;99.90
21722;DHT22;11023;48.274;7.794;2023-09-08T13:58:51;33.30;99.90
21722;DHT22;11023;48.274;7.794;2023-09-08T14:01:17;33.50;99.90
21722;DHT22;11023;48.274;7.794;2023-09-08T14:03:51;33.50;99.90
21722;DHT22;11023;48.274;7.794;2023-09-08T14:06:21;33.40;99.90
21722;DHT22;11023;48.274;7.794;2023-09-08T14:08:47;33.40;99.90
21722;DHT22;11023;48.274;7.794;2023-09-08T14:11:13;33.40;99.90
21722;DHT22;11023;48.274;7.794;2023-09-08T14:13:39;33.40;99.90
21722;DHT22;11023;48.274;7.794;2023-09-08T14:16:05;33.40;99.90
21722;DHT22;11023;48.274;7.794;2023-09-08T14:18:30;33.40;99.90
21722;DHT22;11023;48.274;7.794;2023-09-08T14:20:56;33.60;99.90
21722;DHT22;11023;48.274;7.794;2023-09-08T14:23:21;33.60;99.90
21722;DHT22;11023;48.274;7.794;2023-09-08T14:25:47;33.60;99.90
21722;DHT22;11023;48.274;7.794;2023-09-08T14:28:13;33.70;99.90
21722;DHT22;11023;48.274;7.794;2023-09-08T14:30:38;33.60;99.90
21722;DHT22;11023;48.274;7.794;2023-09-08T14:33:06;33.40;99.90
21722;DHT22;11023;48.274;7.794;2023-09-08T14:35:32;33.50;99.90
21722;DHT22;11023;48.274;7.794;2023-09-08T14:37:58;33.40;99.90
21722;DHT22;11023;48.274;7.794;2023-09-08T14:40:24;33.40;99.90
21722;DHT22;11023;48.274;7.794;2023-09-08T14:42:50;33.20;99.90
21722;DHT22;11023;48.274;7.794;2023-09-08T14:45:15;33.30;99.90
21722;DHT22;11023;48.274;7.794;2023-09-08T14:47:41;33.30;99.90
21722;DHT22;11023;48.274;7.794;2023-09-08T14:50:07;33.40;99.90
21722;DHT22;11023;48.274;7.794;2023-09-08T14:52:33;33.60;99.90
21722;DHT22;11023;48.274;7.794;2023-09-08T14:55:00;33.80;99.90
21722;DHT22;11023;48.274;7.794;2023-09-08T14:57:26;33.90;99.90
21722;DHT22;11023;48.274;7.794;2023-09-08T14:59:52;34.00;99.90
21722;DHT22;11023;48.274;7.794;2023-09-08T15:02:21;34.00;99.90
21722;DHT22;11023;48.274;7.794;2023-09-08T15:04:48;34.10;99.90
21722;DHT22;11023;48.274;7.794;2023-09-08T15:07:13;33.70;99.90
21722;DHT22;11023;48.274;7.794;2023-09-08T15:09:39;33.80;99.90
21722;DHT22;11023;48.274;7.794;2023-09-08T15:12:05;33.80;99.90
21722;DHT22;11023;48.274;7.794;2023-09-08T15:14:31;33.50;99.90
21722;DHT22;11023;48.274;7.794;2023-09-08T15:16:57;33.60;99.90
21722;DHT22;11023;48.274;7.794;2023-09-08T15:19:23;33.40;99.90
21722;DHT22;11023;48.274;7.794;2023-09-08T15:21:49;33.60;99.90
21722;DHT22;11023;48.274;7.794;2023-09-08T15:24:15;33.50;99.90
21722;DHT22;11023;48.274;7.794;2023-09-08T15:26:41;33.60;99.90
21722;DHT22;11023;48.274;7.794;2023-09-08T15:29:06;33.60;99.90
21722;DHT22;11023;48.274;7.794;2023-09-08T15:31:32;33.80;99.90